createdAt,value
2019-03-05T00:00:48.860Z,989.39
2019-03-05T00:01:48.852Z,989.42
2019-03-05T00:02:48.846Z,989.42
2019-03-05T00:03:48.839Z,989.41
2019-03-05T00:04:48.832Z,989.39
2019-03-05T00:05:48.833Z,989.43
2019-03-05T00:06:48.819Z,989.45
2019-03-05T00:07:48.812Z,989.38
2019-03-05T00:08:48.806Z,989.37
2019-03-05T00:09:48.799Z,989.41
2019-03-05T00:10:48.793Z,989.41
2019-03-05T00:11:48.788Z,989.38
2019-03-05T00:12:48.780Z,989.37
2019-03-05T00:13:48.774Z,989.35
2019-03-05T00:14:48.768Z,989.43
2019-03-05T00:15:48.759Z,989.45
2019-03-05T00:16:48.757Z,989.47
2019-03-05T00:17:48.747Z,989.45
2019-03-05T00:18:48.745Z,989.43
2019-03-05T00:19:48.734Z,989.40
2019-03-05T00:20:48.729Z,989.42
2019-03-05T00:21:48.721Z,989.43
2019-03-05T00:22:48.715Z,989.44
2019-03-05T00:23:48.714Z,989.48
2019-03-05T00:24:48.700Z,989.47
2019-03-05T00:25:48.695Z,989.40
2019-03-05T00:26:48.687Z,989.49
2019-03-05T00:27:48.680Z,989.52
2019-03-05T00:28:48.674Z,989.54
2019-03-05T00:29:48.669Z,989.49
2019-03-05T00:30:48.662Z,989.53
2019-03-05T00:31:48.654Z,989.51
2019-03-05T00:32:48.647Z,989.49
2019-03-05T00:33:48.641Z,989.59
2019-03-05T00:34:48.636Z,989.61
2019-03-05T00:35:48.628Z,989.52
2019-03-05T00:36:48.622Z,989.54
2019-03-05T00:37:48.616Z,989.59
2019-03-05T00:38:48.608Z,989.53
2019-03-05T00:39:48.603Z,989.66
2019-03-05T00:40:48.595Z,989.66
2019-03-05T00:41:48.592Z,989.55
2019-03-05T00:42:48.585Z,989.64
2019-03-05T00:43:48.576Z,989.65
2019-03-05T00:44:48.569Z,989.65
2019-03-05T00:45:48.563Z,989.71
2019-03-05T00:46:48.557Z,989.76
2019-03-05T00:47:48.548Z,989.83
2019-03-05T00:48:48.546Z,989.72
2019-03-05T00:49:48.541Z,989.82
2019-03-05T00:50:48.530Z,989.82
2019-03-05T00:51:48.522Z,989.85
2019-03-05T00:52:48.516Z,989.89
2019-03-05T00:53:48.509Z,989.86
2019-03-05T00:54:48.503Z,989.92
2019-03-05T00:55:49.887Z,989.90
2019-03-05T00:56:48.489Z,989.81
2019-03-05T00:57:48.484Z,989.86
2019-03-05T00:58:48.477Z,989.82
2019-03-05T00:59:48.469Z,989.86
2019-03-05T01:00:48.463Z,989.96
2019-03-05T01:01:48.456Z,989.90
2019-03-05T01:02:48.453Z,989.92
2019-03-05T01:03:48.444Z,989.99
2019-03-05T01:04:48.438Z,989.89
2019-03-05T01:05:48.431Z,989.93
2019-03-05T01:06:48.428Z,990.12
2019-03-05T01:07:48.419Z,989.85
2019-03-05T01:08:48.409Z,989.93
2019-03-05T01:09:48.404Z,989.91
2019-03-05T01:10:48.400Z,989.98
2019-03-05T01:11:48.390Z,989.92
2019-03-05T01:12:48.384Z,989.97
2019-03-05T01:13:48.376Z,989.99
2019-03-05T01:14:48.377Z,990.00
2019-03-05T01:15:48.362Z,989.97
2019-03-05T01:16:48.356Z,989.90
2019-03-05T01:17:48.350Z,990.04
2019-03-05T01:18:48.343Z,990.02
2019-03-05T01:19:48.336Z,990.06
2019-03-05T01:20:48.329Z,990.06
2019-03-05T01:21:48.324Z,990.06
2019-03-05T01:22:48.317Z,990.02
2019-03-05T01:23:48.311Z,990.09
2019-03-05T01:24:48.304Z,990.02
2019-03-05T01:25:48.297Z,990.08
2019-03-05T01:26:48.291Z,990.02
2019-03-05T01:27:48.285Z,990.21
2019-03-05T01:28:48.278Z,990.08
2019-03-05T01:29:48.272Z,990.16
2019-03-05T01:30:48.264Z,990.14
2019-03-05T01:31:48.258Z,990.17
2019-03-05T01:32:48.252Z,990.14
2019-03-05T01:33:48.245Z,990.16
2019-03-05T01:34:48.240Z,990.16
2019-03-05T01:35:48.232Z,990.28
2019-03-05T01:36:48.225Z,990.16
2019-03-05T01:37:48.233Z,990.22
2019-03-05T01:38:48.212Z,990.22
2019-03-05T01:39:48.205Z,990.21
2019-03-05T01:40:48.197Z,990.19
2019-03-05T01:41:48.191Z,990.20
2019-03-05T01:42:48.185Z,990.19
2019-03-05T01:43:48.178Z,990.21
2019-03-05T01:44:48.172Z,990.05
2019-03-05T01:45:48.167Z,990.14
2019-03-05T01:46:48.159Z,990.20
2019-03-05T01:47:48.203Z,990.17
2019-03-05T01:48:48.146Z,990.26
2019-03-05T01:49:48.138Z,990.20
2019-03-05T01:50:48.132Z,990.24
2019-03-05T01:51:48.124Z,990.19
2019-03-05T01:52:48.118Z,990.18
2019-03-05T01:53:48.112Z,990.25
2019-03-05T01:54:48.107Z,990.24
2019-03-05T01:55:48.099Z,990.28
2019-03-05T01:56:48.093Z,990.25
2019-03-05T01:57:48.091Z,990.23
2019-03-05T01:58:48.080Z,990.23
2019-03-05T01:59:48.072Z,990.26
2019-03-05T02:00:48.087Z,990.15
2019-03-05T02:01:48.061Z,990.24
2019-03-05T02:02:48.053Z,990.28
2019-03-05T02:03:48.046Z,990.30
2019-03-05T02:04:48.038Z,990.30
2019-03-05T02:05:48.033Z,990.36
2019-03-05T02:06:48.025Z,990.31
2019-03-05T02:07:48.018Z,990.28
2019-03-05T02:08:48.011Z,990.29
2019-03-05T02:09:48.005Z,990.25
2019-03-05T02:10:47.998Z,990.27
2019-03-05T02:11:47.993Z,990.32
2019-03-05T02:12:47.985Z,990.28
2019-03-05T02:13:47.981Z,990.25
2019-03-05T02:14:47.971Z,990.27
2019-03-05T02:15:47.968Z,990.30
2019-03-05T02:16:47.958Z,990.28
2019-03-05T02:17:48.031Z,990.28
2019-03-05T02:18:47.946Z,990.33
2019-03-05T02:19:47.944Z,990.30
2019-03-05T02:20:47.933Z,990.29
2019-03-05T02:21:47.925Z,990.31
2019-03-05T02:22:47.919Z,990.41
2019-03-05T02:23:47.912Z,990.29
2019-03-05T02:24:47.905Z,990.34
2019-03-05T02:25:47.899Z,990.38
2019-03-05T02:26:47.892Z,990.31
2019-03-05T02:27:47.884Z,990.31
2019-03-05T02:28:47.878Z,990.37
2019-03-05T02:29:47.871Z,990.32
2019-03-05T02:30:47.867Z,990.32
2019-03-05T02:31:47.858Z,990.35
2019-03-05T02:32:47.854Z,990.36
2019-03-05T02:33:47.845Z,990.40
2019-03-05T02:34:47.840Z,990.33
2019-03-05T02:35:47.835Z,990.37
2019-03-05T02:36:47.833Z,990.32
2019-03-05T02:37:47.820Z,990.40
2019-03-05T02:38:47.813Z,990.43
2019-03-05T02:39:47.805Z,990.37
2019-03-05T02:40:47.805Z,990.33
2019-03-05T02:41:47.792Z,990.37
2019-03-05T02:42:47.786Z,990.37
2019-03-05T02:43:47.778Z,990.44
2019-03-05T02:44:47.772Z,990.42
2019-03-05T02:45:47.766Z,990.45
2019-03-05T02:46:47.759Z,990.50
2019-03-05T02:47:47.752Z,990.45
2019-03-05T02:48:47.745Z,990.40
2019-03-05T02:49:47.739Z,990.49
2019-03-05T02:50:47.733Z,990.38
2019-03-05T02:51:47.725Z,990.38
2019-03-05T02:52:47.719Z,990.46
2019-03-05T02:53:47.713Z,990.46
2019-03-05T02:54:47.706Z,990.43
2019-03-05T02:55:47.697Z,990.42
2019-03-05T02:56:47.697Z,990.45
2019-03-05T02:57:47.684Z,990.45
2019-03-05T02:58:47.682Z,990.46
2019-03-05T02:59:47.671Z,990.40
2019-03-05T03:00:47.664Z,990.44
2019-03-05T03:01:47.681Z,990.49
2019-03-05T03:02:47.652Z,990.45
2019-03-05T03:03:47.645Z,990.51
2019-03-05T03:04:47.642Z,990.61
2019-03-05T03:05:47.633Z,990.54
2019-03-05T03:06:47.625Z,990.49
2019-03-05T03:07:47.616Z,990.50
2019-03-05T03:08:47.610Z,990.55
2019-03-05T03:09:47.604Z,990.55
2019-03-05T03:10:47.599Z,990.51
2019-03-05T03:11:47.590Z,990.59
2019-03-05T03:12:47.589Z,990.54
2019-03-05T03:13:47.575Z,990.58
2019-03-05T03:14:47.572Z,990.66
2019-03-05T03:15:47.561Z,990.63
2019-03-05T03:16:47.556Z,990.69
2019-03-05T03:17:47.548Z,990.68
2019-03-05T03:18:47.541Z,990.67
2019-03-05T03:19:47.534Z,990.67
2019-03-05T03:20:47.527Z,990.66
2019-03-05T03:21:47.521Z,990.69
2019-03-05T03:22:47.516Z,990.68
2019-03-05T03:23:47.509Z,990.63
2019-03-05T03:24:47.512Z,990.69
2019-03-05T03:25:47.493Z,990.72
2019-03-05T03:26:47.485Z,990.65
2019-03-05T03:27:47.487Z,990.67
2019-03-05T03:28:47.471Z,990.73
2019-03-05T03:29:47.464Z,990.67
2019-03-05T03:30:47.458Z,990.66
2019-03-05T03:31:47.615Z,990.64
2019-03-05T03:32:47.446Z,990.65
2019-03-05T03:33:47.436Z,990.66
2019-03-05T03:34:47.433Z,990.67
2019-03-05T03:35:47.421Z,990.65
2019-03-05T03:36:47.413Z,990.61
2019-03-05T03:37:47.406Z,990.64
2019-03-05T03:38:47.402Z,990.62
2019-03-05T03:39:47.391Z,990.76
2019-03-05T03:40:47.387Z,990.72
2019-03-05T03:41:47.380Z,990.71
2019-03-05T03:42:47.372Z,990.77
2019-03-05T03:43:47.364Z,990.88
2019-03-05T03:44:47.421Z,990.79
2019-03-05T03:45:47.352Z,990.81
2019-03-05T03:46:47.347Z,990.80
2019-03-05T03:47:47.336Z,990.86
2019-03-05T03:48:47.333Z,990.81
2019-03-05T03:49:47.323Z,990.85
2019-03-05T03:50:47.318Z,990.75
2019-03-05T03:51:47.309Z,990.81
2019-03-05T03:52:47.302Z,990.82
2019-03-05T03:53:47.294Z,990.86
2019-03-05T03:54:47.291Z,990.80
2019-03-05T03:55:47.279Z,990.82
2019-03-05T03:56:47.270Z,990.86
2019-03-05T03:57:47.264Z,990.81
2019-03-05T03:58:47.256Z,990.81
2019-03-05T03:59:47.249Z,990.89
2019-03-05T04:00:47.241Z,990.81
2019-03-05T04:01:47.240Z,990.88
2019-03-05T04:02:47.228Z,990.85
2019-03-05T04:03:47.223Z,990.88
2019-03-05T04:04:47.213Z,990.89
2019-03-05T04:05:47.206Z,990.97
2019-03-05T04:06:47.202Z,990.94
2019-03-05T04:07:47.192Z,990.91
2019-03-05T04:08:47.188Z,990.94
2019-03-05T04:09:47.187Z,991.00
2019-03-05T04:10:47.172Z,990.94
2019-03-05T04:11:47.168Z,990.91
2019-03-05T04:12:47.158Z,990.95
2019-03-05T04:13:47.157Z,990.99
2019-03-05T04:14:47.148Z,990.95
2019-03-05T04:15:47.141Z,990.91
2019-03-05T04:16:47.130Z,991.00
2019-03-05T04:17:47.133Z,991.15
2019-03-05T04:18:47.114Z,990.93
2019-03-05T04:19:47.107Z,990.96
2019-03-05T04:20:47.100Z,990.95
2019-03-05T04:21:47.093Z,990.96
2019-03-05T04:22:47.086Z,991.01
2019-03-05T04:23:47.078Z,990.98
2019-03-05T04:24:47.071Z,991.04
2019-03-05T04:25:47.063Z,991.01
2019-03-05T04:26:47.056Z,990.96
2019-03-05T04:27:47.057Z,990.96
2019-03-05T04:28:47.043Z,990.94
2019-03-05T04:29:47.035Z,990.97
2019-03-05T04:30:47.028Z,990.98
2019-03-05T04:31:47.024Z,990.94
2019-03-05T04:32:47.014Z,990.97
2019-03-05T04:33:47.010Z,991.00
2019-03-05T04:34:46.999Z,991.09
2019-03-05T04:35:46.992Z,991.04
2019-03-05T04:36:46.984Z,991.04
2019-03-05T04:37:46.978Z,991.02
2019-03-05T04:38:46.972Z,991.08
2019-03-05T04:39:46.963Z,991.04
2019-03-05T04:40:46.956Z,991.02
2019-03-05T04:41:46.953Z,991.09
2019-03-05T04:42:46.947Z,991.02
2019-03-05T04:43:46.935Z,991.04
2019-03-05T04:44:46.928Z,991.11
2019-03-05T04:45:46.921Z,991.07
2019-03-05T04:46:46.914Z,991.04
2019-03-05T04:47:46.907Z,991.07
2019-03-05T04:48:46.901Z,991.00
2019-03-05T04:49:46.894Z,991.03
2019-03-05T04:50:46.887Z,991.04
2019-03-05T04:51:46.879Z,991.08
2019-03-05T04:52:46.872Z,991.07
2019-03-05T04:53:46.865Z,991.06
2019-03-05T04:54:46.859Z,991.11
2019-03-05T04:55:46.850Z,991.00
2019-03-05T04:56:46.846Z,991.16
2019-03-05T04:57:46.837Z,991.11
2019-03-05T04:58:46.829Z,991.24
2019-03-05T04:59:46.825Z,991.19
2019-03-05T05:00:46.814Z,991.16
2019-03-05T05:01:46.810Z,991.16
2019-03-05T05:02:46.801Z,991.24
2019-03-05T05:03:46.794Z,991.21
2019-03-05T05:04:46.787Z,991.25
2019-03-05T05:05:46.780Z,991.20
2019-03-05T05:06:46.774Z,991.18
2019-03-05T05:07:46.769Z,991.18
2019-03-05T05:08:46.758Z,991.19
2019-03-05T05:09:46.750Z,991.31
2019-03-05T05:10:46.745Z,991.24
2019-03-05T05:11:46.736Z,991.23
2019-03-05T05:12:46.730Z,991.15
2019-03-05T05:13:46.723Z,991.20
2019-03-05T05:14:46.715Z,991.19
2019-03-05T05:15:46.714Z,991.14
2019-03-05T05:16:46.702Z,991.23
2019-03-05T05:17:46.695Z,991.15
2019-03-05T05:18:46.688Z,991.21
2019-03-05T05:19:46.680Z,991.22
2019-03-05T05:20:46.672Z,991.10
2019-03-05T05:21:46.665Z,991.15
2019-03-05T05:22:46.659Z,991.15
2019-03-05T05:23:46.652Z,991.18
2019-03-05T05:24:46.644Z,991.14
2019-03-05T05:25:46.638Z,991.14
2019-03-05T05:26:46.631Z,991.08
2019-03-05T05:27:46.622Z,991.17
2019-03-05T05:28:46.616Z,991.17
2019-03-05T05:29:46.608Z,991.15
2019-03-05T05:30:46.603Z,991.16
2019-03-05T05:31:46.595Z,991.19
2019-03-05T05:32:46.587Z,991.16
2019-03-05T05:33:46.582Z,991.14
2019-03-05T05:34:46.574Z,991.22
2019-03-05T05:35:46.573Z,991.11
2019-03-05T05:36:46.560Z,991.10
2019-03-05T05:37:46.555Z,991.11
2019-03-05T05:38:46.545Z,991.17
2019-03-05T05:39:46.541Z,991.18
2019-03-05T05:40:46.534Z,991.23
2019-03-05T05:41:46.523Z,991.15
2019-03-05T05:42:46.516Z,991.21
2019-03-05T05:43:46.515Z,991.17
2019-03-05T05:44:46.502Z,991.17
2019-03-05T05:45:46.572Z,991.22
2019-03-05T05:46:46.488Z,991.21
2019-03-05T05:47:46.481Z,991.19
2019-03-05T05:48:46.473Z,991.22
2019-03-05T05:49:46.468Z,991.21
2019-03-05T05:50:46.460Z,991.18
2019-03-05T05:51:46.451Z,991.29
2019-03-05T05:52:46.449Z,991.18
2019-03-05T05:53:46.437Z,991.22
2019-03-05T05:54:46.430Z,991.28
2019-03-05T05:55:46.424Z,991.13
2019-03-05T05:56:46.416Z,991.36
2019-03-05T05:57:46.482Z,991.13
2019-03-05T05:58:46.403Z,991.17
2019-03-05T05:59:46.395Z,991.23
2019-03-05T06:00:46.388Z,991.22
2019-03-05T06:01:46.382Z,991.33
2019-03-05T06:02:46.375Z,991.34
2019-03-05T06:03:46.368Z,991.27
2019-03-05T06:04:46.361Z,991.15
2019-03-05T06:05:46.353Z,991.19
2019-03-05T06:06:46.347Z,991.20
2019-03-05T06:07:46.338Z,991.10
2019-03-05T06:08:46.331Z,991.23
2019-03-05T06:09:46.327Z,991.25
2019-03-05T06:10:46.317Z,991.22
2019-03-05T06:11:46.309Z,991.30
2019-03-05T06:12:46.303Z,991.26
2019-03-05T06:13:46.296Z,991.32
2019-03-05T06:14:46.289Z,991.46
2019-03-05T06:15:46.282Z,991.42
2019-03-05T06:16:46.273Z,991.40
2019-03-05T06:17:46.268Z,991.44
2019-03-05T06:18:46.261Z,991.37
2019-03-05T06:19:46.253Z,991.36
2019-03-05T06:20:46.248Z,991.37
2019-03-05T06:21:46.239Z,991.37
2019-03-05T06:22:46.239Z,991.39
2019-03-05T06:23:46.223Z,991.50
2019-03-05T06:24:46.216Z,991.52
2019-03-05T06:25:46.217Z,991.51
2019-03-05T06:26:46.203Z,991.48
2019-03-05T06:27:46.194Z,991.59
2019-03-05T06:28:46.187Z,991.57
2019-03-05T06:29:46.180Z,991.59
2019-03-05T06:30:46.175Z,991.54
2019-03-05T06:31:46.164Z,991.61
2019-03-05T06:32:46.159Z,991.52
2019-03-05T06:33:46.151Z,991.60
2019-03-05T06:34:46.144Z,991.57
2019-03-05T06:35:46.137Z,991.48
2019-03-05T06:36:46.129Z,991.59
2019-03-05T06:37:46.122Z,991.55
2019-03-05T06:38:46.114Z,991.63
2019-03-05T06:39:46.107Z,991.53
2019-03-05T06:40:46.099Z,991.57
2019-03-05T06:41:46.095Z,991.55
2019-03-05T06:42:46.086Z,991.55
2019-03-05T06:43:46.078Z,991.61
2019-03-05T06:44:46.073Z,991.58
2019-03-05T06:45:46.066Z,991.57
2019-03-05T06:46:46.057Z,991.51
2019-03-05T06:47:46.048Z,991.66
2019-03-05T06:48:46.042Z,991.63
2019-03-05T06:49:46.034Z,991.64
2019-03-05T06:50:46.029Z,991.69
2019-03-05T06:51:46.019Z,991.77
2019-03-05T06:52:46.014Z,991.65
2019-03-05T06:53:46.005Z,991.61
2019-03-05T06:54:45.999Z,991.59
2019-03-05T06:55:45.994Z,991.64
2019-03-05T06:56:45.984Z,991.61
2019-03-05T06:57:45.977Z,991.63
2019-03-05T06:58:45.970Z,991.60
2019-03-05T06:59:45.962Z,991.69
2019-03-05T07:00:45.955Z,991.73
2019-03-05T07:01:45.948Z,991.74
2019-03-05T07:02:45.940Z,991.76
2019-03-05T07:03:45.932Z,991.69
2019-03-05T07:04:45.925Z,991.73
2019-03-05T07:05:45.922Z,991.75
2019-03-05T07:06:45.913Z,991.79
2019-03-05T07:07:45.904Z,991.76
2019-03-05T07:08:45.897Z,991.84
2019-03-05T07:09:45.896Z,991.81
2019-03-05T07:10:45.882Z,991.83
2019-03-05T07:11:45.878Z,991.81
2019-03-05T07:12:45.872Z,991.86
2019-03-05T07:13:45.862Z,991.88
2019-03-05T07:14:45.857Z,991.87
2019-03-05T07:15:45.846Z,991.88
2019-03-05T07:16:45.840Z,991.85
2019-03-05T07:17:45.832Z,991.90
2019-03-05T07:18:45.827Z,991.83
2019-03-05T07:19:54.535Z,991.95
2019-03-05T07:20:45.815Z,991.92
2019-03-05T07:21:45.805Z,991.92
2019-03-05T07:22:45.798Z,991.89
2019-03-05T07:23:45.790Z,991.92
2019-03-05T07:24:45.785Z,991.95
2019-03-05T07:25:45.777Z,991.91
2019-03-05T07:26:45.770Z,991.91
2019-03-05T07:27:45.763Z,991.99
2019-03-05T07:28:45.755Z,992.04
2019-03-05T07:29:45.749Z,991.97
2019-03-05T07:30:45.742Z,992.03
2019-03-05T07:31:45.734Z,991.99
2019-03-05T07:32:45.727Z,992.01
2019-03-05T07:33:45.721Z,992.04
2019-03-05T07:34:45.714Z,992.11
2019-03-05T07:35:45.706Z,992.08
2019-03-05T07:36:45.699Z,992.07
2019-03-05T07:37:45.692Z,992.08
2019-03-05T07:38:45.686Z,992.12
2019-03-05T07:39:45.680Z,992.17
2019-03-05T07:40:45.677Z,992.14
2019-03-05T07:41:48.134Z,992.13
2019-03-05T07:42:45.658Z,992.20
2019-03-05T07:43:45.652Z,992.17
2019-03-05T07:44:45.643Z,992.18
2019-03-05T07:45:45.636Z,992.18
2019-03-05T07:46:45.631Z,992.22
2019-03-05T07:47:45.623Z,992.18
2019-03-05T07:48:45.615Z,992.18
2019-03-05T07:49:45.609Z,992.20
2019-03-05T07:50:45.603Z,992.26
2019-03-05T07:51:45.596Z,992.25
2019-03-05T07:52:45.591Z,992.20
2019-03-05T07:53:45.581Z,992.23
2019-03-05T07:54:45.575Z,992.20
2019-03-05T07:55:45.568Z,992.28
2019-03-05T07:56:45.567Z,992.32
2019-03-05T07:57:45.555Z,992.34
2019-03-05T07:58:45.548Z,992.32
2019-03-05T07:59:45.541Z,992.23
2019-03-05T08:00:45.535Z,992.29
2019-03-05T08:01:45.528Z,992.32
2019-03-05T08:02:45.522Z,992.40
2019-03-05T08:03:45.513Z,992.38
2019-03-05T08:04:45.509Z,992.37
2019-03-05T08:05:47.434Z,992.35
2019-03-05T08:06:45.494Z,992.38
2019-03-05T08:07:45.488Z,992.41
2019-03-05T08:08:45.483Z,992.37
2019-03-05T08:09:45.478Z,992.45
2019-03-05T08:10:45.467Z,992.46
2019-03-05T08:11:45.459Z,992.43
2019-03-05T08:12:45.454Z,992.51
2019-03-05T08:13:45.451Z,992.54
2019-03-05T08:14:45.441Z,992.48
2019-03-05T08:15:45.433Z,992.53
2019-03-05T08:16:45.429Z,992.60
2019-03-05T08:17:47.013Z,992.56
2019-03-05T08:18:45.414Z,992.64
2019-03-05T08:19:45.407Z,992.58
2019-03-05T08:20:45.403Z,992.61
2019-03-05T08:21:45.395Z,992.65
2019-03-05T08:22:45.388Z,992.68
2019-03-05T08:23:48.253Z,992.68
2019-03-05T08:24:45.376Z,992.79
2019-03-05T08:25:45.369Z,992.69
2019-03-05T08:26:45.361Z,992.63
2019-03-05T08:27:45.355Z,992.68
2019-03-05T08:28:45.349Z,992.72
2019-03-05T08:29:45.344Z,992.71
2019-03-05T08:30:45.334Z,992.78
2019-03-05T08:31:45.332Z,992.76
2019-03-05T08:32:45.323Z,992.84
2019-03-05T08:33:45.315Z,992.78
2019-03-05T08:34:45.308Z,992.77
2019-03-05T08:35:45.303Z,992.77
2019-03-05T08:36:45.295Z,992.92
2019-03-05T08:37:45.288Z,992.86
2019-03-05T08:38:45.283Z,992.84
2019-03-05T08:39:45.278Z,992.88
2019-03-05T08:40:45.268Z,992.86
2019-03-05T08:41:45.265Z,992.86
2019-03-05T08:42:45.256Z,992.93
2019-03-05T08:43:45.250Z,992.86
2019-03-05T08:44:50.434Z,992.93
2019-03-05T08:45:45.236Z,992.99
2019-03-05T08:46:45.232Z,992.98
2019-03-05T08:47:45.223Z,992.95
2019-03-05T08:48:45.216Z,993.02
2019-03-05T08:49:45.211Z,992.90
2019-03-05T08:50:45.204Z,992.99
2019-03-05T08:51:45.197Z,992.96
2019-03-05T08:52:45.193Z,993.03
2019-03-05T08:53:49.533Z,993.21
2019-03-05T08:54:45.572Z,993.11
2019-03-05T08:55:45.171Z,993.19
2019-03-05T08:56:45.163Z,993.25
2019-03-05T08:57:45.158Z,993.20
2019-03-05T08:58:45.152Z,993.16
2019-03-05T08:59:45.146Z,993.13
2019-03-05T09:00:45.138Z,993.12
2019-03-05T09:01:45.132Z,993.14
2019-03-05T09:02:48.645Z,993.13
2019-03-05T09:03:45.119Z,993.21
2019-03-05T09:04:45.112Z,993.20
2019-03-05T09:05:45.108Z,993.22
2019-03-05T09:06:45.100Z,993.28
2019-03-05T09:07:45.092Z,993.23
2019-03-05T09:08:45.087Z,993.22
2019-03-05T09:09:45.081Z,993.20
2019-03-05T09:10:45.076Z,993.24
2019-03-05T09:11:45.068Z,993.28
2019-03-05T09:12:45.063Z,993.26
2019-03-05T09:13:45.058Z,993.25
2019-03-05T09:14:45.050Z,993.35
2019-03-05T09:15:45.043Z,993.27
2019-03-05T09:16:45.038Z,993.39
2019-03-05T09:17:45.031Z,993.33
2019-03-05T09:18:45.024Z,993.35
2019-03-05T09:19:45.018Z,993.43
2019-03-05T09:20:45.012Z,993.42
2019-03-05T09:21:45.005Z,993.31
2019-03-05T09:22:45.001Z,993.44
2019-03-05T09:23:44.996Z,993.41
2019-03-05T09:24:44.987Z,993.35
2019-03-05T09:25:44.982Z,993.39
2019-03-05T09:26:51.235Z,993.37
2019-03-05T09:27:44.967Z,993.44
2019-03-05T09:28:44.963Z,993.39
2019-03-05T09:29:44.956Z,993.40
2019-03-05T09:30:44.979Z,993.38
2019-03-05T09:31:44.944Z,993.48
2019-03-05T09:32:44.940Z,993.54
2019-03-05T09:33:44.932Z,993.52
2019-03-05T09:34:44.926Z,993.47
2019-03-05T09:35:44.918Z,993.46
2019-03-05T09:36:50.958Z,993.41
2019-03-05T09:37:44.906Z,993.40
2019-03-05T09:38:44.899Z,993.38
2019-03-05T09:39:44.892Z,993.48
2019-03-05T09:40:44.889Z,993.51
2019-03-05T09:41:44.880Z,993.41
2019-03-05T09:42:44.875Z,993.49
2019-03-05T09:43:44.872Z,993.53
2019-03-05T09:44:44.862Z,993.50
2019-03-05T09:45:44.856Z,993.46
2019-03-05T09:46:44.849Z,993.54
2019-03-05T09:47:44.843Z,993.49
2019-03-05T09:48:44.835Z,993.51
2019-03-05T09:49:44.832Z,993.57
2019-03-05T09:50:44.824Z,993.57
2019-03-05T09:51:44.880Z,993.65
2019-03-05T09:52:54.530Z,993.52
2019-03-05T09:53:44.805Z,993.64
2019-03-05T09:54:44.800Z,993.61
2019-03-05T09:55:44.791Z,993.60
2019-03-05T09:56:44.784Z,993.64
2019-03-05T09:57:44.777Z,993.66
2019-03-05T09:58:44.773Z,993.64
2019-03-05T09:59:44.764Z,993.64
2019-03-05T10:00:44.761Z,993.68
2019-03-05T10:01:44.753Z,993.62
2019-03-05T10:02:44.746Z,993.67
2019-03-05T10:03:44.740Z,993.68
2019-03-05T10:04:44.732Z,993.75
2019-03-05T10:05:44.728Z,993.72
2019-03-05T10:06:44.720Z,993.69
2019-03-05T10:07:44.715Z,993.77
2019-03-05T10:08:44.708Z,993.80
2019-03-05T10:09:44.701Z,993.77
2019-03-05T10:10:44.696Z,993.84
2019-03-05T10:11:44.688Z,993.71
2019-03-05T10:12:44.682Z,993.79
2019-03-05T10:13:44.676Z,993.78
2019-03-05T10:14:44.669Z,993.74
2019-03-05T10:15:44.664Z,993.81
2019-03-05T10:16:44.657Z,993.76
2019-03-05T10:17:44.650Z,993.81
2019-03-05T10:18:44.645Z,993.87
2019-03-05T10:19:44.638Z,993.77
2019-03-05T10:20:44.632Z,993.79
2019-03-05T10:21:46.593Z,993.76
2019-03-05T10:22:44.620Z,993.76
2019-03-05T10:23:44.613Z,993.76
2019-03-05T10:24:44.607Z,993.79
2019-03-05T10:25:44.601Z,993.85
2019-03-05T10:26:44.594Z,993.82
2019-03-05T10:27:44.588Z,993.83
2019-03-05T10:28:44.582Z,993.89
2019-03-05T10:29:44.575Z,993.97
2019-03-05T10:30:44.568Z,993.97
2019-03-05T10:31:44.628Z,993.94
2019-03-05T10:32:44.556Z,993.95
2019-03-05T10:33:44.552Z,993.96
2019-03-05T10:34:44.544Z,993.98
2019-03-05T10:35:44.537Z,994.02
2019-03-05T10:36:44.531Z,993.99
2019-03-05T10:37:44.530Z,993.92
2019-03-05T10:38:44.519Z,993.93
2019-03-05T10:39:44.514Z,993.98
2019-03-05T10:40:44.508Z,994.01
2019-03-05T10:41:44.503Z,994.02
2019-03-05T10:42:44.496Z,994.07
2019-03-05T10:43:44.489Z,994.08
2019-03-05T10:44:44.483Z,994.06
2019-03-05T10:45:44.480Z,994.14
2019-03-05T10:46:44.472Z,994.16
2019-03-05T10:47:44.466Z,994.05
2019-03-05T10:48:44.462Z,994.12
2019-03-05T10:49:44.454Z,994.10
2019-03-05T10:50:44.450Z,994.13
2019-03-05T10:51:44.442Z,994.11
2019-03-05T10:52:44.437Z,994.11
2019-03-05T10:53:44.431Z,994.10
2019-03-05T10:54:44.445Z,994.10
2019-03-05T10:55:44.419Z,994.15
2019-03-05T10:56:44.413Z,994.17
2019-03-05T10:57:44.524Z,994.20
2019-03-05T10:58:44.401Z,994.20
2019-03-05T10:59:44.467Z,994.14
2019-03-05T11:00:44.390Z,994.17
2019-03-05T11:01:44.385Z,994.27
2019-03-05T11:02:44.380Z,994.25
2019-03-05T11:03:44.375Z,994.30
2019-03-05T11:04:45.966Z,994.29
2019-03-05T11:05:44.362Z,994.34
2019-03-05T11:06:44.357Z,994.35
2019-03-05T11:07:44.350Z,994.69
2019-03-05T11:08:44.346Z,994.43
2019-03-05T11:09:44.339Z,994.38
2019-03-05T11:10:44.335Z,994.34
2019-03-05T11:11:44.328Z,994.64
2019-03-05T11:12:44.324Z,994.49
2019-03-05T11:13:44.319Z,994.35
2019-03-05T11:14:44.314Z,994.35
2019-03-05T11:15:44.307Z,994.34
2019-03-05T11:16:44.302Z,994.33
2019-03-05T11:17:44.302Z,994.33
2019-03-05T11:18:44.293Z,994.33
2019-03-05T11:19:44.287Z,994.31
2019-03-05T11:20:44.284Z,994.34
2019-03-05T11:21:44.280Z,994.34
2019-03-05T11:22:44.272Z,994.40
2019-03-05T11:23:44.268Z,994.34
2019-03-05T11:24:44.262Z,994.43
2019-03-05T11:25:44.258Z,994.38
2019-03-05T11:26:44.253Z,994.41
2019-03-05T11:27:44.246Z,994.51
2019-03-05T11:28:44.242Z,994.48
2019-03-05T11:29:44.236Z,994.52
2019-03-05T11:30:44.232Z,994.47
2019-03-05T11:31:44.228Z,994.51
2019-03-05T11:32:44.223Z,994.45
2019-03-05T11:33:44.217Z,994.47
2019-03-05T11:34:44.211Z,994.50
2019-03-05T11:35:44.209Z,994.49
2019-03-05T11:36:44.201Z,994.73
2019-03-05T11:37:44.195Z,994.53
2019-03-05T11:38:44.192Z,994.54
2019-03-05T11:39:44.183Z,994.62
2019-03-05T11:40:44.180Z,994.58
2019-03-05T11:41:44.174Z,994.64
2019-03-05T11:42:44.168Z,994.65
2019-03-05T11:43:44.162Z,994.70
2019-03-05T11:44:55.736Z,994.74
2019-03-05T11:45:44.152Z,994.72
2019-03-05T11:46:44.147Z,994.73
2019-03-05T11:47:44.141Z,994.76
2019-03-05T11:48:44.137Z,994.75
2019-03-05T11:49:44.132Z,994.67
2019-03-05T11:50:44.126Z,994.73
2019-03-05T11:51:44.120Z,994.81
2019-03-05T11:52:44.117Z,994.77
2019-03-05T11:53:44.112Z,994.84
2019-03-05T11:54:44.109Z,994.85
2019-03-05T11:55:44.102Z,994.97
2019-03-05T11:56:44.097Z,994.96
2019-03-05T11:57:44.091Z,995.21
2019-03-05T11:58:44.085Z,995.02
2019-03-05T11:59:44.081Z,995.29
2019-03-05T12:00:44.074Z,994.96
2019-03-05T12:01:44.069Z,994.98
2019-03-05T12:02:44.066Z,994.97
2019-03-05T12:03:44.061Z,995.11
2019-03-05T12:04:44.058Z,994.95
2019-03-05T12:05:44.050Z,995.06
2019-03-05T12:06:44.045Z,994.98
2019-03-05T12:07:46.086Z,995.02
2019-03-05T12:08:44.034Z,995.06
2019-03-05T12:09:44.031Z,995.07
2019-03-05T12:10:44.026Z,995.08
2019-03-05T12:11:44.021Z,995.02
2019-03-05T12:12:44.016Z,995.02
2019-03-05T12:13:44.012Z,994.98
2019-03-05T12:14:44.007Z,994.99
2019-03-05T12:15:44.000Z,994.99
2019-03-05T12:16:43.997Z,994.98
2019-03-05T12:17:43.992Z,995.01
2019-03-05T12:18:43.988Z,994.99
2019-03-05T12:19:43.982Z,995.09
2019-03-05T12:20:43.977Z,995.04
2019-03-05T12:21:43.974Z,995.08
2019-03-05T12:22:43.967Z,995.10
2019-03-05T12:23:47.174Z,995.13
2019-03-05T12:24:43.956Z,995.12
2019-03-05T12:25:43.952Z,995.12
2019-03-05T12:26:43.947Z,995.18
2019-03-05T12:27:43.943Z,995.22
2019-03-05T12:28:43.946Z,995.15